CXA673 KCOS-KASE
Flight info
| Callsign | CXA673 |
|---|---|
| Flight time | 0h 39m |
| Altitude | 17000 |
| Route | DRAKE V83 PUB/N0440F160 RODDY CUTTZ HAREI1 |
| Aircraft | C750/M-SBDE3FGHRWXY/S |
Departure
| Time | 2026-04-24 03:33 |
|---|---|
| Airport | City of Colorado Springs Municipal Airport (KCOS) |
Arrival
| Time | 2026-04-24 04:13 |
|---|---|
| Airport | Aspen-Pitkin County Airport (Sardy Field) (KASE) |
| Time | Latitude | Longitude | Altitude | Speed | Heading |
|---|---|---|---|---|---|
| 2026-04-24 03:24 | 38.79844 | -104.70161 | 6190 ft | 0 kts | 112° |
| 2026-04-24 03:29 | 38.79839 | -104.70158 | 6190 ft | 2 kts | 159° |
| 2026-04-24 03:29 | 38.79846 | -104.70189 | 6190 ft | 9 kts | 321° |
| 2026-04-24 03:30 | 38.79937 | -104.70280 | 6190 ft | 24 kts | 322° |
| 2026-04-24 03:30 | 38.80098 | -104.70427 | 6190 ft | 29 kts | 341° |
| 2026-04-24 03:30 | 38.80284 | -104.70440 | 6190 ft | 26 kts | 2° |
| 2026-04-24 03:30 | 38.80360 | -104.70298 | 6190 ft | 21 kts | 81° |
| 2026-04-24 03:31 | 38.80362 | -104.70138 | 6190 ft | 17 kts | 91° |
| 2026-04-24 03:31 | 38.80356 | -104.69960 | 6190 ft | 21 kts | 91° |
| 2026-04-24 03:31 | 38.80352 | -104.69780 | 6190 ft | 19 kts | 91° |
| 2026-04-24 03:31 | 38.80440 | -104.69726 | 6190 ft | 17 kts | 3° |
| 2026-04-24 03:32 | 38.80566 | -104.69689 | 6190 ft | 21 kts | 38° |
| 2026-04-24 03:32 | 38.80676 | -104.69545 | 6191 ft | 23 kts | 44° |
| 2026-04-24 03:32 | 38.80816 | -104.69627 | 6193 ft | 42 kts | 316° |
| 2026-04-24 03:32 | 38.81276 | -104.70216 | 6191 ft | 136 kts | 315° |
| 2026-04-24 03:33 | 38.82030 | -104.71157 | 6610 ft | 155 kts | 320° |
| 2026-04-24 03:33 | 38.82811 | -104.72205 | 7254 ft | 174 kts | 314° |
| 2026-04-24 03:33 | 38.83709 | -104.73381 | 7701 ft | 195 kts | 328° |
| 2026-04-24 03:33 | 38.85107 | -104.73683 | 8031 ft | 226 kts | 11° |
| 2026-04-24 03:34 | 38.86511 | -104.72526 | 8416 ft | 263 kts | 48° |
| 2026-04-24 03:34 | 38.87216 | -104.70214 | 8902 ft | 299 kts | 82° |
| 2026-04-24 03:34 | 38.86915 | -104.67559 | 9581 ft | 314 kts | 107° |
| 2026-04-24 03:34 | 38.85810 | -104.65197 | 10982 ft | 300 kts | 134° |
| 2026-04-24 03:35 | 38.84217 | -104.63495 | 11752 ft | 305 kts | 144° |
| 2026-04-24 03:35 | 38.82491 | -104.61896 | 12655 ft | 307 kts | 147° |
| 2026-04-24 03:35 | 38.80741 | -104.60295 | 13584 ft | 310 kts | 146° |
| 2026-04-24 03:35 | 38.78995 | -104.58644 | 14402 ft | 314 kts | 146° |
| 2026-04-24 03:36 | 38.77231 | -104.56964 | 15192 ft | 317 kts | 146° |
| 2026-04-24 03:36 | 38.75440 | -104.55279 | 15988 ft | 321 kts | 147° |
| 2026-04-24 03:36 | 38.73624 | -104.53581 | 16778 ft | 326 kts | 147° |
| 2026-04-24 03:36 | 38.71728 | -104.51804 | 16959 ft | 352 kts | 147° |
| 2026-04-24 03:37 | 38.69676 | -104.49878 | 16953 ft | 379 kts | 146° |
| 2026-04-24 03:37 | 38.67480 | -104.47812 | 16937 ft | 403 kts | 146° |
| 2026-04-24 03:37 | 38.65171 | -104.45643 | 16915 ft | 418 kts | 146° |
| 2026-04-24 03:37 | 38.62741 | -104.43634 | 16868 ft | 423 kts | 155° |
| 2026-04-24 03:38 | 38.59990 | -104.42290 | 16867 ft | 426 kts | 166° |
| 2026-04-24 03:38 | 38.57056 | -104.41677 | 16859 ft | 429 kts | 178° |
| 2026-04-24 03:38 | 38.54064 | -104.41736 | 16880 ft | 431 kts | 184° |
| 2026-04-24 03:38 | 38.51058 | -104.41902 | 16900 ft | 434 kts | 184° |
| 2026-04-24 03:39 | 38.48031 | -104.42127 | 16892 ft | 435 kts | 188° |
| 2026-04-24 03:39 | 38.45073 | -104.42924 | 16903 ft | 434 kts | 197° |
| 2026-04-24 03:39 | 38.42254 | -104.44289 | 16909 ft | 433 kts | 206° |
| 2026-04-24 03:39 | 38.39644 | -104.46192 | 16920 ft | 429 kts | 215° |
| 2026-04-24 03:40 | 38.37365 | -104.48506 | 16928 ft | 420 kts | 223° |
| 2026-04-24 03:40 | 38.35395 | -104.51212 | 16937 ft | 413 kts | 231° |
| 2026-04-24 03:40 | 38.33788 | -104.54209 | 16934 ft | 407 kts | 239° |
| 2026-04-24 03:40 | 38.32557 | -104.57429 | 16935 ft | 403 kts | 248° |
| 2026-04-24 03:41 | 38.31709 | -104.60818 | 16925 ft | 400 kts | 256° |
| 2026-04-24 03:41 | 38.31255 | -104.64298 | 16927 ft | 399 kts | 264° |
| 2026-04-24 03:41 | 38.31195 | -104.67824 | 16907 ft | 398 kts | 271° |
| 2026-04-24 03:41 | 38.31436 | -104.71327 | 16913 ft | 397 kts | 275° |
| 2026-04-24 03:42 | 38.31678 | -104.74833 | 16911 ft | 397 kts | 274° |
| 2026-04-24 03:42 | 38.31904 | -104.78338 | 16906 ft | 399 kts | 274° |
| 2026-04-24 03:42 | 38.32144 | -104.81864 | 16891 ft | 400 kts | 274° |
| 2026-04-24 03:42 | 38.32393 | -104.85397 | 16887 ft | 401 kts | 274° |
| 2026-04-24 03:43 | 38.32637 | -104.88953 | 16885 ft | 403 kts | 274° |
| 2026-04-24 03:43 | 38.32873 | -104.92511 | 16884 ft | 404 kts | 274° |
| 2026-04-24 03:43 | 38.33111 | -104.96087 | 16877 ft | 404 kts | 274° |
| 2026-04-24 03:43 | 38.33353 | -104.99661 | 16877 ft | 405 kts | 274° |
| 2026-04-24 03:44 | 38.33592 | -105.03234 | 16889 ft | 405 kts | 274° |
| 2026-04-24 03:44 | 38.33828 | -105.06804 | 16888 ft | 404 kts | 274° |
| 2026-04-24 03:44 | 38.34063 | -105.10378 | 16896 ft | 404 kts | 274° |
| 2026-04-24 03:44 | 38.34295 | -105.13891 | 16900 ft | 403 kts | 274° |
| 2026-04-24 03:45 | 38.34528 | -105.17447 | 16902 ft | 402 kts | 274° |
| 2026-04-24 03:45 | 38.34758 | -105.20994 | 16907 ft | 401 kts | 274° |
| 2026-04-24 03:45 | 38.34988 | -105.24543 | 16904 ft | 400 kts | 274° |
| 2026-04-24 03:45 | 38.35216 | -105.28079 | 16905 ft | 400 kts | 274° |
| 2026-04-24 03:46 | 38.35444 | -105.31604 | 16911 ft | 399 kts | 274° |
| 2026-04-24 03:46 | 38.35669 | -105.35130 | 16907 ft | 398 kts | 274° |
| 2026-04-24 03:46 | 38.35970 | -105.38632 | 16889 ft | 398 kts | 279° |
| 2026-04-24 03:46 | 38.36608 | -105.42050 | 16905 ft | 396 kts | 283° |
| 2026-04-24 03:47 | 38.37231 | -105.45466 | 16918 ft | 396 kts | 282° |
| 2026-04-24 03:47 | 38.37822 | -105.48900 | 16928 ft | 396 kts | 282° |
| 2026-04-24 03:47 | 38.38428 | -105.52329 | 16916 ft | 397 kts | 282° |
| 2026-04-24 03:47 | 38.39057 | -105.55758 | 16918 ft | 397 kts | 282° |
| 2026-04-24 03:48 | 38.39669 | -105.59145 | 16927 ft | 398 kts | 282° |
| 2026-04-24 03:48 | 38.40276 | -105.62587 | 16925 ft | 398 kts | 282° |
| 2026-04-24 03:48 | 38.40885 | -105.66028 | 16945 ft | 397 kts | 282° |
| 2026-04-24 03:48 | 38.41499 | -105.69459 | 16970 ft | 397 kts | 282° |
| 2026-04-24 03:49 | 38.42111 | -105.72891 | 16983 ft | 397 kts | 282° |
| 2026-04-24 03:49 | 38.42718 | -105.76326 | 17003 ft | 397 kts | 282° |
| 2026-04-24 03:49 | 38.43323 | -105.79757 | 17011 ft | 397 kts | 282° |
| 2026-04-24 03:49 | 38.43925 | -105.83160 | 17031 ft | 396 kts | 282° |
| 2026-04-24 03:50 | 38.44530 | -105.86587 | 17044 ft | 395 kts | 282° |
| 2026-04-24 03:50 | 38.45132 | -105.90010 | 17058 ft | 395 kts | 282° |
| 2026-04-24 03:50 | 38.45731 | -105.93424 | 17062 ft | 395 kts | 282° |
| 2026-04-24 03:50 | 38.46331 | -105.96846 | 17080 ft | 395 kts | 282° |
| 2026-04-24 03:51 | 38.46930 | -106.00262 | 17074 ft | 394 kts | 282° |
| 2026-04-24 03:51 | 38.47758 | -106.03581 | 17072 ft | 394 kts | 291° |
| 2026-04-24 03:51 | 38.49037 | -106.06678 | 17076 ft | 394 kts | 301° |
| 2026-04-24 03:51 | 38.50102 | -106.08554 | 17077 ft | 395 kts | 307° |
| 2026-04-24 03:52 | 38.52024 | -106.11078 | 17079 ft | 397 kts | 316° |
| 2026-04-24 03:52 | 38.54260 | -106.13159 | 17072 ft | 399 kts | 325° |
| 2026-04-24 03:52 | 38.57350 | -106.15682 | 17087 ft | 398 kts | 324° |
| 2026-04-24 03:52 | 38.59671 | -106.17615 | 17078 ft | 398 kts | 324° |
| 2026-04-24 03:53 | 38.61993 | -106.19544 | 17061 ft | 399 kts | 324° |
| 2026-04-24 03:53 | 38.63570 | -106.20843 | 17055 ft | 399 kts | 325° |
| 2026-04-24 03:53 | 38.65909 | -106.22769 | 17052 ft | 401 kts | 325° |
| 2026-04-24 03:53 | 38.68253 | -106.24709 | 17056 ft | 400 kts | 324° |
| 2026-04-24 03:54 | 38.70566 | -106.26631 | 17071 ft | 403 kts | 324° |
| 2026-04-24 03:54 | 38.72918 | -106.28580 | 17066 ft | 403 kts | 325° |
| 2026-04-24 03:54 | 38.75271 | -106.30530 | 17072 ft | 403 kts | 324° |
| 2026-04-24 03:54 | 38.77626 | -106.32485 | 17073 ft | 403 kts | 325° |
| 2026-04-24 03:55 | 38.79984 | -106.34447 | 17075 ft | 402 kts | 324° |
| 2026-04-24 03:55 | 38.82328 | -106.36397 | 17061 ft | 402 kts | 324° |
| 2026-04-24 03:55 | 38.84668 | -106.38344 | 17070 ft | 401 kts | 324° |
| 2026-04-24 03:55 | 38.87018 | -106.40301 | 17046 ft | 401 kts | 324° |
| 2026-04-24 03:56 | 38.89354 | -106.42249 | 17036 ft | 400 kts | 324° |
| 2026-04-24 03:56 | 38.91683 | -106.44193 | 17051 ft | 398 kts | 324° |
| 2026-04-24 03:56 | 38.94011 | -106.46137 | 17018 ft | 399 kts | 324° |
| 2026-04-24 03:56 | 38.96332 | -106.48090 | 17034 ft | 398 kts | 324° |
| 2026-04-24 03:57 | 38.98638 | -106.50060 | 17039 ft | 398 kts | 324° |
| 2026-04-24 03:57 | 39.00942 | -106.52028 | 17067 ft | 397 kts | 324° |
| 2026-04-24 03:57 | 39.03255 | -106.53988 | 17068 ft | 399 kts | 324° |
| 2026-04-24 03:57 | 39.05566 | -106.55945 | 17069 ft | 398 kts | 324° |
| 2026-04-24 03:58 | 39.07998 | -106.57663 | 17048 ft | 401 kts | 334° |
| 2026-04-24 03:58 | 39.10642 | -106.58811 | 17082 ft | 402 kts | 342° |
| 2026-04-24 03:58 | 39.13358 | -106.59683 | 17052 ft | 403 kts | 343° |
| 2026-04-24 03:58 | 39.16079 | -106.60585 | 17067 ft | 405 kts | 342° |
| 2026-04-24 03:59 | 39.18771 | -106.61492 | 17086 ft | 405 kts | 342° |
| 2026-04-24 03:59 | 39.21511 | -106.62397 | 17058 ft | 407 kts | 343° |
| 2026-04-24 03:59 | 39.24264 | -106.63300 | 17076 ft | 406 kts | 343° |
| 2026-04-24 03:59 | 39.26993 | -106.64214 | 17079 ft | 406 kts | 342° |
| 2026-04-24 04:00 | 39.29723 | -106.65141 | 17089 ft | 405 kts | 342° |
| 2026-04-24 04:00 | 39.32363 | -106.66359 | 17076 ft | 402 kts | 335° |
| 2026-04-24 04:00 | 39.34959 | -106.67700 | 17081 ft | 402 kts | 336° |
| 2026-04-24 04:00 | 39.37524 | -106.69125 | 17035 ft | 400 kts | 329° |
| 2026-04-24 04:01 | 39.39635 | -106.71391 | 16867 ft | 388 kts | 312° |
| 2026-04-24 04:01 | 39.41306 | -106.73977 | 16267 ft | 360 kts | 306° |
| 2026-04-24 04:01 | 39.42768 | -106.76480 | 15707 ft | 339 kts | 305° |
| 2026-04-24 04:01 | 39.44135 | -106.78880 | 15144 ft | 324 kts | 304° |
| 2026-04-24 04:02 | 39.45443 | -106.81197 | 14589 ft | 312 kts | 303° |
| 2026-04-24 04:02 | 39.46235 | -106.83718 | 13911 ft | 301 kts | 277° |
| 2026-04-24 04:02 | 39.45940 | -106.86343 | 13176 ft | 296 kts | 248° |
| 2026-04-24 04:02 | 39.44660 | -106.88385 | 12581 ft | 294 kts | 222° |
| 2026-04-24 04:03 | 39.43048 | -106.89849 | 12371 ft | 280 kts | 216° |
| 2026-04-24 04:03 | 39.41443 | -106.91166 | 12127 ft | 266 kts | 214° |
| 2026-04-24 04:03 | 39.39908 | -106.92409 | 11911 ft | 257 kts | 214° |
| 2026-04-24 04:03 | 39.38414 | -106.93617 | 11683 ft | 251 kts | 214° |
| 2026-04-24 04:04 | 39.36940 | -106.94814 | 11396 ft | 247 kts | 214° |
| 2026-04-24 04:04 | 39.35508 | -106.95984 | 11178 ft | 242 kts | 214° |
| 2026-04-24 04:04 | 39.34098 | -106.97135 | 10916 ft | 236 kts | 214° |
| 2026-04-24 04:04 | 39.32668 | -106.98160 | 10598 ft | 236 kts | 199° |
| 2026-04-24 04:05 | 39.31034 | -106.98052 | 10157 ft | 242 kts | 160° |
| 2026-04-24 04:05 | 39.29789 | -106.96662 | 9950 ft | 236 kts | 129° |
| 2026-04-24 04:05 | 39.29044 | -106.94859 | 9837 ft | 226 kts | 118° |
| 2026-04-24 04:05 | 39.28420 | -106.93054 | 9758 ft | 212 kts | 109° |
| 2026-04-24 04:06 | 39.28296 | -106.91222 | 9558 ft | 198 kts | 95° |
| 2026-04-24 04:06 | 39.27707 | -106.89741 | 9149 ft | 179 kts | 141° |
| 2026-04-24 04:06 | 39.26670 | -106.89033 | 8865 ft | 159 kts | 158° |
| 2026-04-24 04:06 | 39.25693 | -106.88506 | 8618 ft | 147 kts | 159° |
| 2026-04-24 04:07 | 39.24727 | -106.88003 | 8001 ft | 150 kts | 163° |
| 2026-04-24 04:07 | 39.23777 | -106.87581 | 7765 ft | 140 kts | 161° |
| 2026-04-24 04:07 | 39.22918 | -106.87170 | 7736 ft | 125 kts | 163° |
| 2026-04-24 04:07 | 39.22050 | -106.86767 | 8209 ft | 141 kts | 162° |
| 2026-04-24 04:08 | 39.21024 | -106.86291 | 8786 ft | 169 kts | 161° |
| 2026-04-24 04:08 | 39.19911 | -106.85664 | 9595 ft | 180 kts | 153° |
| 2026-04-24 04:08 | 39.18813 | -106.84841 | 10477 ft | 184 kts | 143° |
| 2026-04-24 04:08 | 39.18213 | -106.83412 | 11200 ft | 192 kts | 90° |
| 2026-04-24 04:09 | 39.18841 | -106.81901 | 11723 ft | 202 kts | 28° |
| 2026-04-24 04:09 | 39.20220 | -106.81593 | 11964 ft | 208 kts | 348° |
| 2026-04-24 04:09 | 39.21630 | -106.82011 | 11818 ft | 214 kts | 342° |
| 2026-04-24 04:09 | 39.23091 | -106.82446 | 11256 ft | 213 kts | 344° |
| 2026-04-24 04:10 | 39.24450 | -106.82889 | 10762 ft | 192 kts | 342° |
| 2026-04-24 04:10 | 39.25691 | -106.83387 | 10458 ft | 183 kts | 339° |
| 2026-04-24 04:10 | 39.26850 | -106.83965 | 10119 ft | 178 kts | 335° |
| 2026-04-24 04:11 | 39.27896 | -106.86279 | 9248 ft | 161 kts | 245° |
| 2026-04-24 04:11 | 39.27152 | -106.87356 | 8847 ft | 157 kts | 220° |
| 2026-04-24 04:11 | 39.26271 | -106.88088 | 8409 ft | 151 kts | 205° |
| 2026-04-24 04:11 | 39.25284 | -106.88276 | 8014 ft | 143 kts | 176° |
| 2026-04-24 04:12 | 39.24379 | -106.87864 | 7853 ft | 130 kts | 158° |
| 2026-04-24 04:12 | 39.23546 | -106.87466 | 7733 ft | 125 kts | 162° |
| 2026-04-24 04:12 | 39.22758 | -106.87095 | 7725 ft | 112 kts | 161° |
| 2026-04-24 04:12 | 39.22217 | -106.86838 | 7759 ft | 55 kts | 160° |
| 2026-04-24 04:13 | 39.22020 | -106.86718 | 7774 ft | 11 kts | 91° |
| 2026-04-24 04:13 | 39.22026 | -106.86680 | 7774 ft | 3 kts | 77° |
| 2026-04-24 04:13 | 39.22029 | -106.86662 | 7776 ft | 2 kts | 78° |
| 2026-04-24 04:13 | 39.22030 | -106.86652 | 7779 ft | 0 kts | 81° |
| 2026-04-24 04:14 | 39.22018 | -106.86625 | 7774 ft | 6 kts | 141° |
| 2026-04-24 04:14 | 39.21988 | -106.86591 | 7784 ft | 4 kts | 123° |
| 2026-04-24 04:14 | 39.21976 | -106.86549 | 7781 ft | 6 kts | 102° |
| 2026-04-24 04:14 | 39.21973 | -106.86526 | 7786 ft | 0 kts | 101° |